sensor_id;sensor_type;location;lat;lon;timestamp;P1;durP1;ratioP1;P2;durP2;ratioP2
12208;SDS011;6167;43.080;25.634;2023-10-19T04:20:46;18.37;;;11.43;;
12208;SDS011;6167;43.080;25.634;2023-10-19T04:23:23;22.57;;;10.77;;
12208;SDS011;6167;43.080;25.634;2023-10-19T04:25:53;21.70;;;11.63;;
12208;SDS011;6167;43.080;25.634;2023-10-19T04:28:23;23.97;;;11.53;;
12208;SDS011;6167;43.080;25.634;2023-10-19T04:31:03;33.87;;;24.83;;
12208;SDS011;6167;43.080;25.634;2023-10-19T04:33:31;51.53;;;34.60;;
12208;SDS011;6167;43.080;25.634;2023-10-19T04:36:01;34.47;;;17.97;;
12208;SDS011;6167;43.080;25.634;2023-10-19T04:38:28;27.60;;;17.07;;
12208;SDS011;6167;43.080;25.634;2023-10-19T04:41:04;30.40;;;17.80;;
12208;SDS011;6167;43.080;25.634;2023-10-19T04:43:35;25.50;;;16.10;;
12208;SDS011;6167;43.080;25.634;2023-10-19T04:46:09;25.97;;;16.10;;
12208;SDS011;6167;43.080;25.634;2023-10-19T04:48:38;36.93;;;22.10;;
12208;SDS011;6167;43.080;25.634;2023-10-19T04:51:08;26.77;;;16.90;;
12208;SDS011;6167;43.080;25.634;2023-10-19T04:53:35;33.03;;;16.73;;
12208;SDS011;6167;43.080;25.634;2023-10-19T04:56:02;25.63;;;16.53;;
12208;SDS011;6167;43.080;25.634;2023-10-19T04:58:30;31.37;;;17.63;;
12208;SDS011;6167;43.080;25.634;2023-10-19T05:00:57;32.83;;;17.23;;
12208;SDS011;6167;43.080;25.634;2023-10-19T05:03:24;30.60;;;16.70;;
12208;SDS011;6167;43.080;25.634;2023-10-19T05:05:53;31.10;;;15.67;;
12208;SDS011;6167;43.080;25.634;2023-10-19T05:08:23;27.40;;;15.47;;
12208;SDS011;6167;43.080;25.634;2023-10-19T05:10:53;26.50;;;14.20;;
12208;SDS011;6167;43.080;25.634;2023-10-19T05:13:20;23.17;;;14.00;;
12208;SDS011;6167;43.080;25.634;2023-10-19T05:15:47;25.50;;;13.93;;
12208;SDS011;6167;43.080;25.634;2023-10-19T05:18:14;28.87;;;14.47;;
12208;SDS011;6167;43.080;25.634;2023-10-19T05:20:41;20.13;;;10.00;;
12208;SDS011;6167;43.080;25.634;2023-10-19T05:23:08;22.97;;;13.63;;
12208;SDS011;6167;43.080;25.634;2023-10-19T05:25:36;18.67;;;12.47;;
12208;SDS011;6167;43.080;25.634;2023-10-19T05:28:04;19.17;;;11.77;;
12208;SDS011;6167;43.080;25.634;2023-10-19T05:30:31;21.77;;;12.40;;
12208;SDS011;6167;43.080;25.634;2023-10-19T05:32:58;23.90;;;12.63;;
12208;SDS011;6167;43.080;25.634;2023-10-19T05:35:26;24.73;;;13.90;;
12208;SDS011;6167;43.080;25.634;2023-10-19T05:37:54;27.93;;;14.30;;
12208;SDS011;6167;43.080;25.634;2023-10-19T05:40:22;21.17;;;12.67;;
12208;SDS011;6167;43.080;25.634;2023-10-19T05:42:55;33.17;;;14.07;;
12208;SDS011;6167;43.080;25.634;2023-10-19T05:45:23;25.47;;;13.70;;
12208;SDS011;6167;43.080;25.634;2023-10-19T05:47:51;30.27;;;13.63;;
12208;SDS011;6167;43.080;25.634;2023-10-19T05:50:18;24.30;;;13.07;;
12208;SDS011;6167;43.080;25.634;2023-10-19T05:52:45;26.00;;;14.20;;
12208;SDS011;6167;43.080;25.634;2023-10-19T05:55:14;24.07;;;13.20;;
12208;SDS011;6167;43.080;25.634;2023-10-19T05:57:41;25.73;;;13.10;;
12208;SDS011;6167;43.080;25.634;2023-10-19T06:00:10;24.17;;;13.60;;
12208;SDS011;6167;43.080;25.634;2023-10-19T06:02:42;19.97;;;13.07;;
12208;SDS011;6167;43.080;25.634;2023-10-19T06:05:10;30.97;;;18.40;;
12208;SDS011;6167;43.080;25.634;2023-10-19T06:07:38;33.13;;;17.63;;
12208;SDS011;6167;43.080;25.634;2023-10-19T06:10:05;53.27;;;27.80;;
12208;SDS011;6167;43.080;25.634;2023-10-19T06:12:33;26.77;;;16.53;;
12208;SDS011;6167;43.080;25.634;2023-10-19T06:15:02;40.30;;;22.27;;
12208;SDS011;6167;43.080;25.634;2023-10-19T06:17:31;44.17;;;21.77;;
12208;SDS011;6167;43.080;25.634;2023-10-19T06:19:58;34.43;;;19.50;;
12208;SDS011;6167;43.080;25.634;2023-10-19T06:22:25;31.30;;;15.00;;
12208;SDS011;6167;43.080;25.634;2023-10-19T06:24:53;27.83;;;14.87;;
12208;SDS011;6167;43.080;25.634;2023-10-19T06:27:20;32.40;;;14.43;;
12208;SDS011;6167;43.080;25.634;2023-10-19T06:29:48;30.67;;;13.60;;
12208;SDS011;6167;43.080;25.634;2023-10-19T06:32:15;30.13;;;13.93;;
12208;SDS011;6167;43.080;25.634;2023-10-19T06:34:43;32.97;;;12.53;;
12208;SDS011;6167;43.080;25.634;2023-10-19T06:37:10;29.40;;;14.30;;
12208;SDS011;6167;43.080;25.634;2023-10-19T06:39:37;26.37;;;13.83;;
12208;SDS011;6167;43.080;25.634;2023-10-19T06:42:07;23.60;;;12.50;;
12208;SDS011;6167;43.080;25.634;2023-10-19T06:44:39;15.17;;;10.60;;
12208;SDS011;6167;43.080;25.634;2023-10-19T06:47:08;14.00;;;10.47;;
12208;SDS011;6167;43.080;25.634;2023-10-19T06:49:35;13.52;;;9.75;;
12208;SDS011;6167;43.080;25.634;2023-10-19T06:52:03;11.45;;;9.35;;
12208;SDS011;6167;43.080;25.634;2023-10-19T06:54:31;12.43;;;9.70;;
12208;SDS011;6167;43.080;25.634;2023-10-19T06:56:58;14.27;;;9.32;;
12208;SDS011;6167;43.080;25.634;2023-10-19T06:59:28;10.98;;;9.07;;
12208;SDS011;6167;43.080;25.634;2023-10-19T07:01:56;12.90;;;9.07;;
12208;SDS011;6167;43.080;25.634;2023-10-19T07:04:23;13.05;;;8.93;;
12208;SDS011;6167;43.080;25.634;2023-10-19T07:06:50;9.40;;;8.38;;
12208;SDS011;6167;43.080;25.634;2023-10-19T07:09:18;10.60;;;8.05;;
12208;SDS011;6167;43.080;25.634;2023-10-19T07:11:46;9.85;;;8.20;;
12208;SDS011;6167;43.080;25.634;2023-10-19T07:14:13;14.45;;;8.30;;
12208;SDS011;6167;43.080;25.634;2023-10-19T07:16:40;14.63;;;8.98;;
12208;SDS011;6167;43.080;25.634;2023-10-19T07:19:06;11.77;;;8.93;;
12208;SDS011;6167;43.080;25.634;2023-10-19T07:21:34;12.77;;;8.60;;
12208;SDS011;6167;43.080;25.634;2023-10-19T07:24:03;11.65;;;7.75;;
12208;SDS011;6167;43.080;25.634;2023-10-19T07:26:35;10.02;;;7.22;;
12208;SDS011;6167;43.080;25.634;2023-10-19T07:29:08;7.93;;;7.18;;
12208;SDS011;6167;43.080;25.634;2023-10-19T07:31:40;19.92;;;8.35;;
12208;SDS011;6167;43.080;25.634;2023-10-19T07:34:07;14.32;;;7.00;;
12208;SDS011;6167;43.080;25.634;2023-10-19T07:36:38;6.63;;;5.70;;
12208;SDS011;6167;43.080;25.634;2023-10-19T07:39:04;8.02;;;6.25;;
12208;SDS011;6167;43.080;25.634;2023-10-19T07:41:40;11.00;;;6.55;;
12208;SDS011;6167;43.080;25.634;2023-10-19T07:44:07;11.85;;;6.70;;
12208;SDS011;6167;43.080;25.634;2023-10-19T07:46:34;6.10;;;5.18;;
12208;SDS011;6167;43.080;25.634;2023-10-19T07:49:01;5.70;;;5.20;;
12208;SDS011;6167;43.080;25.634;2023-10-19T07:51:28;5.97;;;5.47;;
12208;SDS011;6167;43.080;25.634;2023-10-19T07:53:56;5.82;;;5.30;;
12208;SDS011;6167;43.080;25.634;2023-10-19T07:56:22;6.43;;;5.22;;
12208;SDS011;6167;43.080;25.634;2023-10-19T07:58:51;5.72;;;5.22;;
12208;SDS011;6167;43.080;25.634;2023-10-19T08:01:18;5.60;;;5.10;;
12208;SDS011;6167;43.080;25.634;2023-10-19T08:03:44;5.38;;;4.85;;
12208;SDS011;6167;43.080;25.634;2023-10-19T08:06:11;7.63;;;4.90;;
12208;SDS011;6167;43.080;25.634;2023-10-19T08:08:38;5.10;;;4.80;;
12208;SDS011;6167;43.080;25.634;2023-10-19T08:11:05;5.45;;;5.05;;
12208;SDS011;6167;43.080;25.634;2023-10-19T08:13:31;5.20;;;4.80;;
12208;SDS011;6167;43.080;25.634;2023-10-19T08:15:59;8.20;;;5.15;;
12208;SDS011;6167;43.080;25.634;2023-10-19T08:18:25;5.43;;;5.03;;
12208;SDS011;6167;43.080;25.634;2023-10-19T08:20:55;6.35;;;5.22;;
12208;SDS011;6167;43.080;25.634;2023-10-19T08:23:22;5.00;;;4.60;;
12208;SDS011;6167;43.080;25.634;2023-10-19T08:25:52;5.95;;;4.80;;
12208;SDS011;6167;43.080;25.634;2023-10-19T08:28:19;7.93;;;4.45;;
12208;SDS011;6167;43.080;25.634;2023-10-19T08:30:47;5.10;;;4.40;;
12208;SDS011;6167;43.080;25.634;2023-10-19T08:33:24;5.78;;;5.18;;
12208;SDS011;6167;43.080;25.634;2023-10-19T08:35:51;5.13;;;4.72;;
12208;SDS011;6167;43.080;25.634;2023-10-19T08:38:19;5.18;;;4.68;;
12208;SDS011;6167;43.080;25.634;2023-10-19T08:40:46;5.03;;;4.63;;
12208;SDS011;6167;43.080;25.634;2023-10-19T08:43:16;4.32;;;3.92;;
12208;SDS011;6167;43.080;25.634;2023-10-19T08:45:43;4.75;;;4.35;;
12208;SDS011;6167;43.080;25.634;2023-10-19T08:48:10;4.38;;;3.90;;
12208;SDS011;6167;43.080;25.634;2023-10-19T08:50:39;5.47;;;4.22;;
12208;SDS011;6167;43.080;25.634;2023-10-19T08:53:07;4.95;;;4.20;;
12208;SDS011;6167;43.080;25.634;2023-10-19T08:55:36;4.60;;;4.00;;
12208;SDS011;6167;43.080;25.634;2023-10-19T08:58:03;4.90;;;4.50;;
12208;SDS011;6167;43.080;25.634;2023-10-19T09:00:42;4.82;;;4.20;;
12208;SDS011;6167;43.080;25.634;2023-10-19T09:03:12;4.40;;;4.00;;
12208;SDS011;6167;43.080;25.634;2023-10-19T09:05:43;5.07;;;4.10;;
12208;SDS011;6167;43.080;25.634;2023-10-19T09:08:13;4.93;;;4.13;;
12208;SDS011;6167;43.080;25.634;2023-10-19T09:10:42;4.63;;;4.22;;
12208;SDS011;6167;43.080;25.634;2023-10-19T09:13:11;4.07;;;3.75;;
12208;SDS011;6167;43.080;25.634;2023-10-19T09:15:41;6.07;;;3.67;;
12208;SDS011;6167;43.080;25.634;2023-10-19T09:18:14;3.80;;;3.47;;
12208;SDS011;6167;43.080;25.634;2023-10-19T09:20:44;4.95;;;3.58;;
12208;SDS011;6167;43.080;25.634;2023-10-19T09:23:22;3.42;;;3.13;;
12208;SDS011;6167;43.080;25.634;2023-10-19T09:25:50;6.72;;;3.70;;
12208;SDS011;6167;43.080;25.634;2023-10-19T09:28:19;3.72;;;3.15;;
12208;SDS011;6167;43.080;25.634;2023-10-19T09:30:47;3.60;;;3.30;;
12208;SDS011;6167;43.080;25.634;2023-10-19T09:33:15;5.13;;;3.70;;
12208;SDS011;6167;43.080;25.634;2023-10-19T09:35:45;3.92;;;3.53;;
12208;SDS011;6167;43.080;25.634;2023-10-19T09:38:14;4.75;;;3.00;;
12208;SDS011;6167;43.080;25.634;2023-10-19T09:40:46;4.30;;;3.40;;
12208;SDS011;6167;43.080;25.634;2023-10-19T09:43:15;4.20;;;3.22;;
12208;SDS011;6167;43.080;25.634;2023-10-19T09:45:49;3.10;;;2.80;;
12208;SDS011;6167;43.080;25.634;2023-10-19T09:48:19;4.50;;;3.25;;
12208;SDS011;6167;43.080;25.634;2023-10-19T09:50:49;4.10;;;3.65;;
12208;SDS011;6167;43.080;25.634;2023-10-19T09:53:20;3.97;;;2.60;;
12208;SDS011;6167;43.080;25.634;2023-10-19T09:55:49;3.13;;;2.85;;
12208;SDS011;6167;43.080;25.634;2023-10-19T09:58:20;3.92;;;3.05;;
12208;SDS011;6167;43.080;25.634;2023-10-19T10:00:51;2.78;;;2.58;;
12208;SDS011;6167;43.080;25.634;2023-10-19T10:06:15;3.40;;;3.10;;
12208;SDS011;6167;43.080;25.634;2023-10-19T10:08:45;3.10;;;2.90;;
12208;SDS011;6167;43.080;25.634;2023-10-19T10:11:16;3.28;;;2.95;;
12208;SDS011;6167;43.080;25.634;2023-10-19T10:13:45;2.72;;;2.53;;
12208;SDS011;6167;43.080;25.634;2023-10-19T10:16:16;2.50;;;2.40;;
12208;SDS011;6167;43.080;25.634;2023-10-19T10:18:45;2.95;;;2.65;;
12208;SDS011;6167;43.080;25.634;2023-10-19T10:21:17;3.92;;;2.70;;
12208;SDS011;6167;43.080;25.634;2023-10-19T10:23:49;2.75;;;2.55;;
12208;SDS011;6167;43.080;25.634;2023-10-19T10:26:18;2.88;;;2.50;;
12208;SDS011;6167;43.080;25.634;2023-10-19T10:31:40;2.90;;;2.55;;
12208;SDS011;6167;43.080;25.634;2023-10-19T10:34:08;2.85;;;2.60;;
12208;SDS011;6167;43.080;25.634;2023-10-19T10:39:25;2.50;;;2.30;;
12208;SDS011;6167;43.080;25.634;2023-10-19T10:41:55;2.90;;;2.60;;
12208;SDS011;6167;43.080;25.634;2023-10-19T10:44:35;2.70;;;2.50;;
12208;SDS011;6167;43.080;25.634;2023-10-19T10:47:03;4.38;;;2.78;;
12208;SDS011;6167;43.080;25.634;2023-10-19T10:49:31;2.60;;;2.40;;
12208;SDS011;6167;43.080;25.634;2023-10-19T10:52:00;2.65;;;2.47;;
12208;SDS011;6167;43.080;25.634;2023-10-19T10:54:26;3.00;;;2.40;;
12208;SDS011;6167;43.080;25.634;2023-10-19T10:56:54;3.17;;;2.70;;
12208;SDS011;6167;43.080;25.634;2023-10-19T10:59:20;5.03;;;2.63;;
12208;SDS011;6167;43.080;25.634;2023-10-19T11:01:47;4.95;;;2.63;;
12208;SDS011;6167;43.080;25.634;2023-10-19T11:04:14;6.18;;;2.80;;
12208;SDS011;6167;43.080;25.634;2023-10-19T11:06:48;4.90;;;2.40;;
12208;SDS011;6167;43.080;25.634;2023-10-19T11:09:17;3.13;;;2.83;;
12208;SDS011;6167;43.080;25.634;2023-10-19T11:11:44;4.30;;;2.90;;
12208;SDS011;6167;43.080;25.634;2023-10-19T11:14:11;3.10;;;2.90;;
12208;SDS011;6167;43.080;25.634;2023-10-19T11:16:38;2.88;;;2.55;;
12208;SDS011;6167;43.080;25.634;2023-10-19T11:19:05;4.15;;;2.80;;
12208;SDS011;6167;43.080;25.634;2023-10-19T11:21:32;3.28;;;2.90;;
12208;SDS011;6167;43.080;25.634;2023-10-19T11:23:59;3.35;;;2.60;;
12208;SDS011;6167;43.080;25.634;2023-10-19T11:26:28;8.23;;;3.22;;
12208;SDS011;6167;43.080;25.634;2023-10-19T11:28:58;6.00;;;2.78;;
12208;SDS011;6167;43.080;25.634;2023-10-19T11:31:29;5.50;;;3.15;;
12208;SDS011;6167;43.080;25.634;2023-10-19T11:34:02;5.55;;;3.08;;
12208;SDS011;6167;43.080;25.634;2023-10-19T11:36:30;3.67;;;2.90;;
12208;SDS011;6167;43.080;25.634;2023-10-19T11:38:56;3.25;;;2.75;;
12208;SDS011;6167;43.080;25.634;2023-10-19T11:41:24;3.13;;;2.80;;
12208;SDS011;6167;43.080;25.634;2023-10-19T11:43:53;4.55;;;2.80;;
12208;SDS011;6167;43.080;25.634;2023-10-19T11:46:20;3.05;;;2.85;;
12208;SDS011;6167;43.080;25.634;2023-10-19T11:48:48;7.63;;;3.20;;
12208;SDS011;6167;43.080;25.634;2023-10-19T11:51:14;6.22;;;3.35;;
12208;SDS011;6167;43.080;25.634;2023-10-19T11:53:41;3.92;;;2.83;;
12208;SDS011;6167;43.080;25.634;2023-10-19T11:56:09;5.50;;;3.60;;
12208;SDS011;6167;43.080;25.634;2023-10-19T11:58:38;4.63;;;3.20;;
12208;SDS011;6167;43.080;25.634;2023-10-19T12:01:08;2.88;;;2.40;;
12208;SDS011;6167;43.080;25.634;2023-10-19T12:03:37;2.50;;;2.30;;
12208;SDS011;6167;43.080;25.634;2023-10-19T12:06:05;3.28;;;2.78;;
12208;SDS011;6167;43.080;25.634;2023-10-19T12:08:32;5.05;;;2.75;;
12208;SDS011;6167;43.080;25.634;2023-10-19T12:10:59;3.03;;;2.67;;
12208;SDS011;6167;43.080;25.634;2023-10-19T12:13:29;2.90;;;2.70;;
12208;SDS011;6167;43.080;25.634;2023-10-19T12:15:56;3.10;;;2.80;;
12208;SDS011;6167;43.080;25.634;2023-10-19T12:18:24;3.72;;;2.88;;
12208;SDS011;6167;43.080;25.634;2023-10-19T12:20:53;3.22;;;2.83;;
12208;SDS011;6167;43.080;25.634;2023-10-19T12:23:22;3.78;;;3.42;;
12208;SDS011;6167;43.080;25.634;2023-10-19T12:25:49;4.38;;;3.63;;
12208;SDS011;6167;43.080;25.634;2023-10-19T12:28:16;3.20;;;2.90;;
12208;SDS011;6167;43.080;25.634;2023-10-19T12:30:43;3.10;;;2.90;;
12208;SDS011;6167;43.080;25.634;2023-10-19T12:33:10;3.17;;;2.80;;
12208;SDS011;6167;43.080;25.634;2023-10-19T12:35:42;3.88;;;2.80;;
12208;SDS011;6167;43.080;25.634;2023-10-19T12:38:13;6.15;;;3.47;;
12208;SDS011;6167;43.080;25.634;2023-10-19T12:40:43;3.67;;;3.22;;
12208;SDS011;6167;43.080;25.634;2023-10-19T12:43:11;3.83;;;3.20;;
12208;SDS011;6167;43.080;25.634;2023-10-19T12:45:37;3.42;;;3.15;;
12208;SDS011;6167;43.080;25.634;2023-10-19T12:48:05;3.03;;;2.75;;
12208;SDS011;6167;43.080;25.634;2023-10-19T12:50:34;5.25;;;3.38;;
12208;SDS011;6167;43.080;25.634;2023-10-19T12:53:03;3.40;;;3.10;;
12208;SDS011;6167;43.080;25.634;2023-10-19T12:55:31;5.35;;;2.92;;
12208;SDS011;6167;43.080;25.634;2023-10-19T12:57:58;2.90;;;2.70;;
12208;SDS011;6167;43.080;25.634;2023-10-19T13:00:31;3.70;;;3.40;;
12208;SDS011;6167;43.080;25.634;2023-10-19T13:03:06;3.22;;;2.80;;
12208;SDS011;6167;43.080;25.634;2023-10-19T13:05:34;3.53;;;3.22;;
12208;SDS011;6167;43.080;25.634;2023-10-19T13:08:04;3.75;;;3.20;;
12208;SDS011;6167;43.080;25.634;2023-10-19T13:10:32;3.17;;;2.88;;
12208;SDS011;6167;43.080;25.634;2023-10-19T13:13:04;4.75;;;3.30;;
12208;SDS011;6167;43.080;25.634;2023-10-19T13:15:32;3.63;;;3.33;;
12208;SDS011;6167;43.080;25.634;2023-10-19T13:18:00;3.42;;;3.00;;
12208;SDS011;6167;43.080;25.634;2023-10-19T13:20:29;3.50;;;3.20;;
12208;SDS011;6167;43.080;25.634;2023-10-19T13:22:59;3.83;;;3.25;;
12208;SDS011;6167;43.080;25.634;2023-10-19T13:25:29;4.00;;;3.70;;
12208;SDS011;6167;43.080;25.634;2023-10-19T13:28:07;4.65;;;3.88;;
12208;SDS011;6167;43.080;25.634;2023-10-19T13:30:38;4.43;;;3.90;;
12208;SDS011;6167;43.080;25.634;2023-10-19T13:33:06;3.60;;;3.22;;
12208;SDS011;6167;43.080;25.634;2023-10-19T13:35:34;3.50;;;3.10;;
12208;SDS011;6167;43.080;25.634;2023-10-19T13:38:02;3.90;;;3.50;;
12208;SDS011;6167;43.080;25.634;2023-10-19T13:40:31;3.70;;;3.40;;
12208;SDS011;6167;43.080;25.634;2023-10-19T13:42:58;3.78;;;3.47;;
12208;SDS011;6167;43.080;25.634;2023-10-19T13:45:26;5.70;;;3.53;;
12208;SDS011;6167;43.080;25.634;2023-10-19T13:47:53;4.00;;;3.60;;
12208;SDS011;6167;43.080;25.634;2023-10-19T13:50:23;4.57;;;4.10;;
12208;SDS011;6167;43.080;25.634;2023-10-19T13:52:49;3.88;;;3.53;;
12208;SDS011;6167;43.080;25.634;2023-10-19T13:55:17;3.90;;;3.60;;
12208;SDS011;6167;43.080;25.634;2023-10-19T13:57:46;5.20;;;3.58;;
12208;SDS011;6167;43.080;25.634;2023-10-19T14:00:14;4.22;;;3.92;;
12208;SDS011;6167;43.080;25.634;2023-10-19T14:02:48;6.40;;;3.92;;
12208;SDS011;6167;43.080;25.634;2023-10-19T14:05:15;4.05;;;3.65;;
12208;SDS011;6167;43.080;25.634;2023-10-19T14:07:43;4.97;;;3.50;;
12208;SDS011;6167;43.080;25.634;2023-10-19T14:10:12;4.28;;;3.88;;
12208;SDS011;6167;43.080;25.634;2023-10-19T14:12:39;4.00;;;3.60;;
12208;SDS011;6167;43.080;25.634;2023-10-19T14:15:10;5.43;;;4.47;;
12208;SDS011;6167;43.080;25.634;2023-10-19T14:17:38;8.70;;;4.07;;
12208;SDS011;6167;43.080;25.634;2023-10-19T14:20:06;7.75;;;4.78;;
12208;SDS011;6167;43.080;25.634;2023-10-19T14:22:37;5.50;;;4.20;;
12208;SDS011;6167;43.080;25.634;2023-10-19T14:25:05;4.93;;;3.88;;
12208;SDS011;6167;43.080;25.634;2023-10-19T14:27:37;4.13;;;3.60;;
12208;SDS011;6167;43.080;25.634;2023-10-19T14:30:05;4.38;;;3.90;;
12208;SDS011;6167;43.080;25.634;2023-10-19T14:32:34;4.88;;;4.07;;
12208;SDS011;6167;43.080;25.634;2023-10-19T14:35:01;5.30;;;4.05;;
12208;SDS011;6167;43.080;25.634;2023-10-19T14:37:32;6.72;;;4.32;;
12208;SDS011;6167;43.080;25.634;2023-10-19T14:39:59;5.15;;;3.90;;
12208;SDS011;6167;43.080;25.634;2023-10-19T14:42:26;5.30;;;4.18;;
12208;SDS011;6167;43.080;25.634;2023-10-19T14:44:56;5.13;;;4.18;;
12208;SDS011;6167;43.080;25.634;2023-10-19T14:47:23;5.22;;;4.72;;
12208;SDS011;6167;43.080;25.634;2023-10-19T14:49:53;5.72;;;4.45;;
12208;SDS011;6167;43.080;25.634;2023-10-19T14:52:19;4.90;;;4.35;;
12208;SDS011;6167;43.080;25.634;2023-10-19T14:54:48;4.65;;;4.20;;
12208;SDS011;6167;43.080;25.634;2023-10-19T14:57:16;5.18;;;4.68;;
12208;SDS011;6167;43.080;25.634;2023-10-19T14:59:42;6.38;;;4.18;;
12208;SDS011;6167;43.080;25.634;2023-10-19T15:02:09;5.18;;;4.68;;
12208;SDS011;6167;43.080;25.634;2023-10-19T15:04:38;6.88;;;4.63;;
12208;SDS011;6167;43.080;25.634;2023-10-19T15:07:06;7.55;;;5.20;;
12208;SDS011;6167;43.080;25.634;2023-10-19T15:09:33;5.97;;;5.00;;
12208;SDS011;6167;43.080;25.634;2023-10-19T15:12:00;6.28;;;4.90;;
12208;SDS011;6167;43.080;25.634;2023-10-19T15:14:28;5.78;;;5.10;;
12208;SDS011;6167;43.080;25.634;2023-10-19T15:16:55;7.95;;;4.90;;
12208;SDS011;6167;43.080;25.634;2023-10-19T15:19:21;5.53;;;4.97;;
12208;SDS011;6167;43.080;25.634;2023-10-19T15:21:49;5.97;;;4.78;;
12208;SDS011;6167;43.080;25.634;2023-10-19T15:24:17;6.90;;;5.43;;
12208;SDS011;6167;43.080;25.634;2023-10-19T15:26:44;5.88;;;5.28;;
12208;SDS011;6167;43.080;25.634;2023-10-19T15:29:11;5.25;;;4.75;;
12208;SDS011;6167;43.080;25.634;2023-10-19T15:31:38;5.90;;;4.47;;
12208;SDS011;6167;43.080;25.634;2023-10-19T15:34:05;5.80;;;5.05;;
12208;SDS011;6167;43.080;25.634;2023-10-19T15:36:32;6.00;;;4.80;;
12208;SDS011;6167;43.080;25.634;2023-10-19T15:38:59;5.70;;;5.15;;
12208;SDS011;6167;43.080;25.634;2023-10-19T15:41:27;10.52;;;5.70;;
12208;SDS011;6167;43.080;25.634;2023-10-19T15:43:54;5.80;;;5.30;;
12208;SDS011;6167;43.080;25.634;2023-10-19T15:46:21;6.43;;;5.05;;
12208;SDS011;6167;43.080;25.634;2023-10-19T15:48:50;5.53;;;5.00;;
12208;SDS011;6167;43.080;25.634;2023-10-19T15:51:16;5.95;;;5.35;;
12208;SDS011;6167;43.080;25.634;2023-10-19T15:53:43;6.38;;;5.78;;
12208;SDS011;6167;43.080;25.634;2023-10-19T15:56:10;6.63;;;5.25;;
12208;SDS011;6167;43.080;25.634;2023-10-19T15:58:39;6.43;;;5.30;;
12208;SDS011;6167;43.080;25.634;2023-10-19T16:01:06;6.65;;;5.13;;
12208;SDS011;6167;43.080;25.634;2023-10-19T16:03:34;5.38;;;4.82;;
12208;SDS011;6167;43.080;25.634;2023-10-19T16:06:02;6.28;;;5.68;;
12208;SDS011;6167;43.080;25.634;2023-10-19T16:08:30;7.68;;;5.40;;
12208;SDS011;6167;43.080;25.634;2023-10-19T16:10:57;6.13;;;5.50;;
12208;SDS011;6167;43.080;25.634;2023-10-19T16:13:24;6.35;;;5.80;;
12208;SDS011;6167;43.080;25.634;2023-10-19T16:15:52;7.63;;;5.90;;
12208;SDS011;6167;43.080;25.634;2023-10-19T16:18:19;5.68;;;5.07;;
12208;SDS011;6167;43.080;25.634;2023-10-19T16:20:46;6.80;;;5.20;;
12208;SDS011;6167;43.080;25.634;2023-10-19T16:23:12;8.65;;;5.50;;
12208;SDS011;6167;43.080;25.634;2023-10-19T16:25:40;8.38;;;6.28;;
12208;SDS011;6167;43.080;25.634;2023-10-19T16:28:07;6.95;;;5.88;;
12208;SDS011;6167;43.080;25.634;2023-10-19T16:30:33;7.15;;;5.88;;
12208;SDS011;6167;43.080;25.634;2023-10-19T16:33:01;6.78;;;6.13;;
12208;SDS011;6167;43.080;25.634;2023-10-19T16:35:29;6.60;;;5.43;;
12208;SDS011;6167;43.080;25.634;2023-10-19T16:37:57;8.15;;;5.78;;
12208;SDS011;6167;43.080;25.634;2023-10-19T16:40:24;6.65;;;6.05;;
12208;SDS011;6167;43.080;25.634;2023-10-19T16:42:53;7.03;;;5.43;;
12208;SDS011;6167;43.080;25.634;2023-10-19T16:45:20;5.55;;;5.07;;
12208;SDS011;6167;43.080;25.634;2023-10-19T16:47:47;9.70;;;5.45;;
12208;SDS011;6167;43.080;25.634;2023-10-19T16:50:16;5.60;;;4.90;;
12208;SDS011;6167;43.080;25.634;2023-10-19T16:52:45;5.43;;;4.93;;
12208;SDS011;6167;43.080;25.634;2023-10-19T16:55:13;6.78;;;5.30;;
12208;SDS011;6167;43.080;25.634;2023-10-19T16:57:40;5.47;;;5.00;;
12208;SDS011;6167;43.080;25.634;2023-10-19T17:00:07;5.78;;;5.28;;
12208;SDS011;6167;43.080;25.634;2023-10-19T17:02:38;9.48;;;7.43;;
12208;SDS011;6167;43.080;25.634;2023-10-19T17:05:06;11.88;;;7.43;;
12208;SDS011;6167;43.080;25.634;2023-10-19T17:07:34;7.07;;;6.38;;
12208;SDS011;6167;43.080;25.634;2023-10-19T17:10:03;7.32;;;6.13;;
12208;SDS011;6167;43.080;25.634;2023-10-19T17:12:31;7.72;;;6.63;;
12208;SDS011;6167;43.080;25.634;2023-10-19T17:14:58;8.13;;;6.53;;
12208;SDS011;6167;43.080;25.634;2023-10-19T17:17:25;6.00;;;5.55;;
12208;SDS011;6167;43.080;25.634;2023-10-19T17:19:53;8.20;;;6.30;;
12208;SDS011;6167;43.080;25.634;2023-10-19T17:22:21;7.35;;;6.30;;
12208;SDS011;6167;43.080;25.634;2023-10-19T17:24:49;8.98;;;6.88;;
12208;SDS011;6167;43.080;25.634;2023-10-19T17:27:16;8.50;;;6.65;;
12208;SDS011;6167;43.080;25.634;2023-10-19T17:29:42;9.60;;;7.78;;
12208;SDS011;6167;43.080;25.634;2023-10-19T17:32:10;7.97;;;7.18;;
12208;SDS011;6167;43.080;25.634;2023-10-19T17:34:36;9.75;;;7.28;;
12208;SDS011;6167;43.080;25.634;2023-10-19T17:37:03;8.57;;;7.15;;
12208;SDS011;6167;43.080;25.634;2023-10-19T17:39:31;9.60;;;8.30;;
12208;SDS011;6167;43.080;25.634;2023-10-19T17:42:00;10.02;;;9.00;;
12208;SDS011;6167;43.080;25.634;2023-10-19T17:44:27;9.07;;;8.18;;
12208;SDS011;6167;43.080;25.634;2023-10-19T17:46:55;7.38;;;6.57;;
12208;SDS011;6167;43.080;25.634;2023-10-19T17:49:22;6.80;;;6.07;;
12208;SDS011;6167;43.080;25.634;2023-10-19T17:51:49;6.13;;;5.53;;
12208;SDS011;6167;43.080;25.634;2023-10-19T17:54:16;6.53;;;5.93;;
12208;SDS011;6167;43.080;25.634;2023-10-19T17:56:45;6.20;;;5.60;;
12208;SDS011;6167;43.080;25.634;2023-10-19T17:59:13;7.60;;;6.38;;
12208;SDS011;6167;43.080;25.634;2023-10-19T18:01:40;7.15;;;6.43;;
12208;SDS011;6167;43.080;25.634;2023-10-19T18:04:08;6.32;;;5.68;;
12208;SDS011;6167;43.080;25.634;2023-10-19T18:06:35;7.53;;;6.03;;
12208;SDS011;6167;43.080;25.634;2023-10-19T18:09:02;8.82;;;6.75;;
12208;SDS011;6167;43.080;25.634;2023-10-19T18:11:30;9.50;;;7.95;;
12208;SDS011;6167;43.080;25.634;2023-10-19T18:13:57;6.35;;;5.72;;
12208;SDS011;6167;43.080;25.634;2023-10-19T18:16:25;12.23;;;8.30;;
12208;SDS011;6167;43.080;25.634;2023-10-19T18:18:56;7.75;;;6.47;;
12208;SDS011;6167;43.080;25.634;2023-10-19T18:21:23;8.77;;;7.28;;
12208;SDS011;6167;43.080;25.634;2023-10-19T18:23:50;11.20;;;7.47;;
12208;SDS011;6167;43.080;25.634;2023-10-19T18:26:16;8.30;;;7.50;;
12208;SDS011;6167;43.080;25.634;2023-10-19T18:28:45;8.23;;;6.82;;
12208;SDS011;6167;43.080;25.634;2023-10-19T18:31:13;10.63;;;9.63;;
12208;SDS011;6167;43.080;25.634;2023-10-19T18:33:42;7.65;;;6.82;;
12208;SDS011;6167;43.080;25.634;2023-10-19T18:36:09;5.43;;;4.93;;
12208;SDS011;6167;43.080;25.634;2023-10-19T18:38:38;8.55;;;6.55;;
12208;SDS011;6167;43.080;25.634;2023-10-19T18:41:06;5.70;;;5.15;;
12208;SDS011;6167;43.080;25.634;2023-10-19T18:43:33;7.18;;;5.80;;
12208;SDS011;6167;43.080;25.634;2023-10-19T18:46:01;7.20;;;5.93;;
12208;SDS011;6167;43.080;25.634;2023-10-19T18:48:28;6.82;;;5.50;;
12208;SDS011;6167;43.080;25.634;2023-10-19T18:50:58;5.93;;;5.18;;
12208;SDS011;6167;43.080;25.634;2023-10-19T18:53:27;5.50;;;5.00;;
12208;SDS011;6167;43.080;25.634;2023-10-19T18:55:54;6.45;;;4.70;;
12208;SDS011;6167;43.080;25.634;2023-10-19T18:58:21;5.35;;;4.50;;
12208;SDS011;6167;43.080;25.634;2023-10-19T19:00:52;5.28;;;4.45;;
12208;SDS011;6167;43.080;25.634;2023-10-19T19:03:20;5.43;;;4.80;;
12208;SDS011;6167;43.080;25.634;2023-10-19T19:05:47;6.15;;;4.82;;
12208;SDS011;6167;43.080;25.634;2023-10-19T19:08:16;5.10;;;4.65;;
12208;SDS011;6167;43.080;25.634;2023-10-19T19:10:43;5.45;;;4.78;;
12208;SDS011;6167;43.080;25.634;2023-10-19T19:13:11;5.32;;;4.70;;
12208;SDS011;6167;43.080;25.634;2023-10-19T19:15:37;5.15;;;4.63;;
12208;SDS011;6167;43.080;25.634;2023-10-19T19:18:05;5.65;;;4.57;;